Time,TemperatureF,DewpointF,PressureIn,WindDirection,WindDirectionDegrees,WindSpeedMPH,WindSpeedGustMPH,Humidity,HourlyPrecipIn,Conditions,Clouds,dailyrainin,SolarRadiationWatts/m^2,SoftwareType,DateUTC
2013-06-02 00:01:00,55.0,33.0,-100.00,NNE,16,2.0,5.0,43,0.00,,,0.00,0.000000,,2013-06-02 06:01:00,
2013-06-02 00:12:00,55.0,33.0,-100.00,NNE,16,2.0,5.0,43,0.00,,,0.00,0.000000,,2013-06-02 06:12:00,
2013-06-02 00:21:00,55.0,33.0,-100.00,NNE,16,2.0,5.0,43,0.00,,,0.00,0.000000,,2013-06-02 06:21:00,
2013-06-02 00:31:00,55.0,33.0,-100.00,NNE,16,2.0,5.0,43,0.00,,,0.00,0.000000,,2013-06-02 06:31:00,
2013-06-02 00:52:00,52.0,32.0,-100.00,NW,320,1.0,5.0,46,0.00,,,0.00,0.000000,,2013-06-02 06:52:00,
2013-06-02 01:01:00,52.0,32.0,-100.00,NW,320,1.0,5.0,46,0.00,,,0.00,0.000000,,2013-06-02 07:01:00,
2013-06-02 01:11:00,52.0,32.0,-100.00,NW,320,1.0,5.0,46,0.00,,,0.00,0.000000,,2013-06-02 07:11:00,
2013-06-02 01:21:00,52.0,32.0,-100.00,NW,320,1.0,5.0,46,0.00,,,0.00,0.000000,,2013-06-02 07:21:00,
2013-06-02 01:31:00,52.0,32.0,-100.00,NW,320,1.0,5.0,46,0.00,,,0.00,0.000000,,2013-06-02 07:31:00,
2013-06-02 02:01:00,50.0,34.0,-100.00,ESE,102,2.0,4.0,54,0.00,,,0.00,0.000000,,2013-06-02 08:01:00,
2013-06-02 02:11:00,50.0,34.0,-100.00,ESE,102,2.0,4.0,54,0.00,,,0.00,0.000000,,2013-06-02 08:11:00,
2013-06-02 02:21:00,50.0,34.0,-100.00,ESE,102,2.0,4.0,54,0.00,,,0.00,0.000000,,2013-06-02 08:21:00,
2013-06-02 02:31:00,50.0,34.0,-100.00,ESE,102,2.0,4.0,54,0.00,,,0.00,0.000000,,2013-06-02 08:31:00,
2013-06-02 02:52:00,49.0,33.0,-100.00,NW,316,2.0,3.0,54,0.00,,,-99.99,0.000000,,2013-06-02 08:52:00,
2013-06-02 03:01:00,49.0,33.0,-100.00,NW,316,2.0,3.0,54,0.00,,,-99.99,0.000000,,2013-06-02 09:01:00,
2013-06-02 03:11:00,49.0,33.0,-100.00,NW,316,2.0,3.0,54,0.00,,,-99.99,0.000000,,2013-06-02 09:11:00,
2013-06-02 03:21:00,49.0,33.0,-100.00,NW,316,2.0,3.0,54,0.00,,,-99.99,0.000000,,2013-06-02 09:21:00,
2013-06-02 03:32:00,49.0,33.0,-100.00,NW,316,2.0,3.0,54,0.00,,,-99.99,0.000000,,2013-06-02 09:32:00,
2013-06-02 03:53:00,47.0,34.0,-100.00,East,96,2.0,5.0,61,0.00,,,0.00,0.000000,,2013-06-02 09:53:00,
2013-06-02 04:02:00,47.0,34.0,-100.00,East,96,2.0,5.0,61,0.00,,,0.00,0.000000,,2013-06-02 10:02:00,
2013-06-02 04:12:00,47.0,34.0,-100.00,East,96,2.0,5.0,61,0.00,,,0.00,0.000000,,2013-06-02 10:12:00,
2013-06-02 04:22:00,47.0,34.0,-100.00,East,96,2.0,5.0,61,0.00,,,0.00,0.000000,,2013-06-02 10:22:00,
2013-06-02 04:32:00,47.0,34.0,-100.00,East,96,2.0,5.0,61,0.00,,,0.00,0.000000,,2013-06-02 10:32:00,
2013-06-02 04:52:00,46.0,34.0,-100.00,East,92,2.0,5.0,62,0.00,,,-99.99,0.000000,,2013-06-02 10:52:00,
2013-06-02 05:02:00,46.0,34.0,-100.00,East,92,2.0,5.0,62,0.00,,,-99.99,0.000000,,2013-06-02 11:02:00,
2013-06-02 05:12:00,46.0,34.0,-100.00,East,92,2.0,5.0,62,0.00,,,-99.99,0.000000,,2013-06-02 11:12:00,
2013-06-02 05:21:00,46.0,34.0,-100.00,East,92,2.0,5.0,62,0.00,,,-99.99,0.000000,,2013-06-02 11:21:00,
2013-06-02 05:32:00,46.0,34.0,-100.00,East,92,2.0,5.0,62,0.00,,,-99.99,0.000000,,2013-06-02 11:32:00,
2013-06-02 06:01:00,45.0,35.0,-100.00,East,87,3.0,4.0,67,0.00,,,0.00,0.000000,,2013-06-02 12:01:00,
2013-06-02 06:11:00,45.0,35.0,-100.00,East,87,3.0,4.0,67,0.00,,,0.00,0.000000,,2013-06-02 12:11:00,
2013-06-02 06:21:00,45.0,35.0,-100.00,East,87,3.0,4.0,67,0.00,,,0.00,0.000000,,2013-06-02 12:21:00,
2013-06-02 06:31:00,45.0,35.0,-100.00,East,87,3.0,4.0,67,0.00,,,0.00,0.000000,,2013-06-02 12:31:00,
2013-06-02 06:52:00,45.0,35.0,-100.00,East,99,0.0,4.0,67,0.00,,,0.00,7.000000,,2013-06-02 12:52:00,
2013-06-02 07:01:00,45.0,35.0,-100.00,East,99,0.0,4.0,67,0.00,,,0.00,7.000000,,2013-06-02 13:01:00,
2013-06-02 07:11:00,45.0,35.0,-100.00,East,99,0.0,4.0,67,0.00,,,0.00,7.000000,,2013-06-02 13:11:00,
2013-06-02 07:21:00,45.0,35.0,-100.00,East,99,0.0,4.0,67,0.00,,,0.00,7.000000,,2013-06-02 13:21:00,
2013-06-02 07:32:00,45.0,35.0,-100.00,East,99,0.0,4.0,67,0.00,,,0.00,7.000000,,2013-06-02 13:32:00,
2013-06-02 07:52:00,47.0,36.0,-100.00,ENE,75,1.0,4.0,66,0.00,,,0.00,70.000000,,2013-06-02 13:52:00,
2013-06-02 08:01:00,47.0,36.0,-100.00,ENE,75,1.0,4.0,66,0.00,,,0.00,70.000000,,2013-06-02 14:01:00,
2013-06-02 08:11:00,47.0,36.0,-100.00,ENE,75,1.0,4.0,66,0.00,,,0.00,70.000000,,2013-06-02 14:11:00,
2013-06-02 08:21:00,47.0,36.0,-100.00,ENE,75,1.0,4.0,66,0.00,,,0.00,70.000000,,2013-06-02 14:21:00,
2013-06-02 08:32:00,47.0,36.0,-100.00,ENE,75,1.0,4.0,66,0.00,,,0.00,70.000000,,2013-06-02 14:32:00,
2013-06-02 08:52:00,48.0,39.0,-100.00,SE,139,1.0,4.0,70,0.00,,,0.00,167.000000,,2013-06-02 14:52:00,
2013-06-02 09:01:00,48.0,39.0,-100.00,SE,139,1.0,4.0,70,0.00,,,0.00,167.000000,,2013-06-02 15:01:00,
2013-06-02 09:11:00,48.0,39.0,-100.00,SE,139,1.0,4.0,70,0.00,,,0.00,167.000000,,2013-06-02 15:11:00,
2013-06-02 09:21:00,48.0,39.0,-100.00,SE,139,1.0,4.0,70,0.00,,,0.00,167.000000,,2013-06-02 15:21:00,
2013-06-02 09:32:00,48.0,39.0,-100.00,SE,139,1.0,4.0,70,0.00,,,0.00,167.000000,,2013-06-02 15:32:00,
2013-06-02 10:03:00,52.0,40.0,-100.00,NW,314,0.0,4.0,64,0.00,,,0.00,275.000000,,2013-06-02 16:03:00,
2013-06-02 10:13:00,52.0,40.0,-100.00,NW,314,0.0,4.0,64,0.00,,,0.00,275.000000,,2013-06-02 16:13:00,
2013-06-02 10:23:00,52.0,40.0,-100.00,NW,314,0.0,4.0,64,0.00,,,0.00,275.000000,,2013-06-02 16:23:00,
2013-06-02 10:32:00,52.0,40.0,-100.00,NW,314,0.0,4.0,64,0.00,,,0.00,275.000000,,2013-06-02 16:32:00,
2013-06-02 10:52:00,55.0,38.0,-100.00,NW,324,2.0,5.0,52,0.00,,,0.00,298.000000,,2013-06-02 16:52:00,
2013-06-02 11:02:00,55.0,38.0,-100.00,NW,324,2.0,5.0,52,0.00,,,0.00,298.000000,,2013-06-02 17:02:00,
2013-06-02 11:12:00,55.0,38.0,-100.00,NW,324,2.0,5.0,52,0.00,,,0.00,298.000000,,2013-06-02 17:12:00,
2013-06-02 11:22:00,55.0,38.0,-100.00,NW,324,2.0,5.0,52,0.00,,,0.00,298.000000,,2013-06-02 17:22:00,
2013-06-02 11:32:00,55.0,38.0,-100.00,NW,324,2.0,5.0,52,0.00,,,0.00,298.000000,,2013-06-02 17:32:00,
2013-06-02 11:52:00,58.0,38.0,-100.00,NW,326,3.0,11.0,48,0.00,,,0.00,491.000000,,2013-06-02 17:52:00,
2013-06-02 12:01:00,58.0,38.0,-100.00,NW,326,3.0,11.0,48,0.00,,,0.00,491.000000,,2013-06-02 18:01:00,
2013-06-02 12:11:00,58.0,38.0,-100.00,NW,326,3.0,11.0,48,0.00,,,0.00,491.000000,,2013-06-02 18:11:00,
2013-06-02 12:21:00,58.0,38.0,-100.00,NW,326,3.0,11.0,48,0.00,,,0.00,491.000000,,2013-06-02 18:21:00,
2013-06-02 12:31:00,58.0,38.0,-100.00,NW,326,3.0,11.0,48,0.00,,,0.00,491.000000,,2013-06-02 18:31:00,
2013-06-02 13:01:00,55.0,40.0,-100.00,NNW,333,7.0,13.0,57,0.00,,,0.00,410.000000,,2013-06-02 19:01:00,
2013-06-02 13:11:00,55.0,40.0,-100.00,NNW,333,7.0,13.0,57,0.00,,,0.00,410.000000,,2013-06-02 19:11:00,
2013-06-02 13:21:00,55.0,40.0,-100.00,NNW,333,7.0,13.0,57,0.00,,,0.00,410.000000,,2013-06-02 19:21:00,
2013-06-02 13:31:00,55.0,40.0,-100.00,NNW,333,7.0,13.0,57,0.00,,,0.00,410.000000,,2013-06-02 19:31:00,
2013-06-02 13:52:00,57.0,44.0,-100.00,NNW,333,6.0,15.0,61,0.00,,,0.00,387.000000,,2013-06-02 19:52:00,
2013-06-02 14:02:00,57.0,44.0,-100.00,NNW,333,6.0,15.0,61,0.00,,,0.00,387.000000,,2013-06-02 20:02:00,
2013-06-02 14:11:00,57.0,44.0,-100.00,NNW,333,6.0,15.0,61,0.00,,,0.00,387.000000,,2013-06-02 20:11:00,
2013-06-02 14:21:00,57.0,44.0,-100.00,NNW,333,6.0,15.0,61,0.00,,,0.00,387.000000,,2013-06-02 20:21:00,
2013-06-02 14:31:00,57.0,44.0,-100.00,NNW,333,6.0,15.0,61,0.00,,,0.00,387.000000,,2013-06-02 20:31:00,
2013-06-02 14:52:00,52.0,43.0,-100.00,NNW,331,8.0,15.0,71,0.01,,,0.01,445.000000,,2013-06-02 20:52:00,
2013-06-02 15:01:00,52.0,43.0,-100.00,NNW,331,8.0,15.0,71,0.01,,,0.01,445.000000,,2013-06-02 21:01:00,
2013-06-02 15:53:00,57.0,46.0,-100.00,NNW,327,3.0,15.0,67,-99.99,,,-99.99,461.000000,,2013-06-02 21:53:00,
2013-06-02 16:03:00,57.0,46.0,-100.00,NNW,327,3.0,15.0,67,-99.99,,,-99.99,461.000000,,2013-06-02 22:03:00,
2013-06-02 16:12:00,57.0,46.0,-100.00,NNW,327,3.0,15.0,67,-99.99,,,-99.99,461.000000,,2013-06-02 22:12:00,
2013-06-02 16:23:00,57.0,46.0,-100.00,NNW,327,3.0,15.0,67,-99.99,,,-99.99,461.000000,,2013-06-02 22:23:00,
2013-06-02 16:33:00,57.0,46.0,-100.00,NNW,327,3.0,15.0,67,-99.99,,,-99.99,461.000000,,2013-06-02 22:33:00,
2013-06-02 16:52:00,56.0,40.0,-100.00,NW,323,8.0,20.0,55,0.01,,,0.02,752.000000,,2013-06-02 22:52:00,
2013-06-02 17:02:00,56.0,40.0,-100.00,NW,323,8.0,20.0,55,0.01,,,0.02,752.000000,,2013-06-02 23:02:00,
2013-06-02 17:12:00,56.0,40.0,-100.00,NW,323,8.0,20.0,55,0.01,,,0.02,752.000000,,2013-06-02 23:12:00,
2013-06-02 17:22:00,56.0,40.0,-100.00,NW,323,8.0,20.0,55,0.01,,,0.02,752.000000,,2013-06-02 23:22:00,
2013-06-02 17:32:00,56.0,40.0,-100.00,NW,323,8.0,20.0,55,0.01,,,0.02,752.000000,,2013-06-02 23:32:00,
2013-06-02 17:52:00,60.0,40.0,-100.00,NNW,332,6.0,17.0,48,0.00,,,0.02,503.000000,,2013-06-02 23:52:00,
2013-06-02 18:01:00,60.0,40.0,-100.00,NNW,332,6.0,17.0,48,0.00,,,0.02,503.000000,,2013-06-03 00:01:00,
2013-06-02 18:11:00,60.0,40.0,-100.00,NNW,332,6.0,17.0,48,0.00,,,0.02,503.000000,,2013-06-03 00:11:00,
2013-06-02 18:21:00,60.0,40.0,-100.00,NNW,332,6.0,17.0,48,0.00,,,0.02,503.000000,,2013-06-03 00:21:00,
2013-06-02 18:32:00,60.0,40.0,-100.00,NNW,332,6.0,17.0,48,0.00,,,0.02,503.000000,,2013-06-03 00:32:00,
2013-06-02 18:52:00,55.0,38.0,-100.00,NW,314,6.0,13.0,52,0.00,,,0.02,260.000000,,2013-06-03 00:52:00,
2013-06-02 19:01:00,55.0,38.0,-100.00,NW,314,6.0,13.0,52,0.00,,,0.02,260.000000,,2013-06-03 01:01:00,
2013-06-02 19:11:00,55.0,38.0,-100.00,NW,314,6.0,13.0,52,0.00,,,0.02,260.000000,,2013-06-03 01:11:00,
2013-06-02 19:21:00,55.0,38.0,-100.00,NW,314,6.0,13.0,52,0.00,,,0.02,260.000000,,2013-06-03 01:21:00,
2013-06-02 19:32:00,55.0,38.0,-100.00,NW,314,6.0,13.0,52,0.00,,,0.02,260.000000,,2013-06-03 01:32:00,
2013-06-02 19:52:00,54.0,38.0,-100.00,NW,317,6.0,16.0,54,0.00,,,0.02,178.000000,,2013-06-03 01:52:00,
2013-06-02 20:02:00,54.0,38.0,-100.00,NW,317,6.0,16.0,54,0.00,,,0.02,178.000000,,2013-06-03 02:02:00,
2013-06-02 20:12:00,54.0,38.0,-100.00,NW,317,6.0,16.0,54,0.00,,,0.02,178.000000,,2013-06-03 02:12:00,
2013-06-02 20:22:00,54.0,38.0,-100.00,NW,317,6.0,16.0,54,0.00,,,0.02,178.000000,,2013-06-03 02:22:00,
2013-06-02 20:32:00,54.0,38.0,-100.00,NW,317,6.0,16.0,54,0.00,,,0.02,178.000000,,2013-06-03 02:32:00,
2013-06-02 20:52:00,52.0,35.0,-100.00,NW,310,6.0,19.0,52,0.00,,,0.02,116.000000,,2013-06-03 02:52:00,
2013-06-02 21:02:00,52.0,35.0,-100.00,NW,310,6.0,19.0,52,0.00,,,0.02,116.000000,,2013-06-03 03:02:00,
2013-06-02 21:12:00,52.0,35.0,-100.00,NW,310,6.0,19.0,52,0.00,,,0.02,116.000000,,2013-06-03 03:12:00,
2013-06-02 21:22:00,52.0,35.0,-100.00,NW,310,6.0,19.0,52,0.00,,,0.02,116.000000,,2013-06-03 03:22:00,
2013-06-02 21:33:00,52.0,35.0,-100.00,NW,310,6.0,19.0,52,0.00,,,0.02,116.000000,,2013-06-03 03:33:00,
2013-06-02 21:53:00,48.0,35.0,-100.00,NW,312,5.0,20.0,60,0.00,,,0.02,16.000000,,2013-06-03 03:53:00,
2013-06-02 22:03:00,48.0,35.0,-100.00,NW,312,5.0,20.0,60,0.00,,,0.02,16.000000,,2013-06-03 04:03:00,
2013-06-02 22:12:00,48.0,35.0,-100.00,NW,312,5.0,20.0,60,0.00,,,0.02,16.000000,,2013-06-03 04:12:00,
2013-06-02 22:23:00,48.0,35.0,-100.00,NW,312,5.0,20.0,60,0.00,,,0.02,16.000000,,2013-06-03 04:23:00,
2013-06-02 22:33:00,48.0,35.0,-100.00,NW,312,5.0,20.0,60,0.00,,,0.02,16.000000,,2013-06-03 04:33:00,
2013-06-02 22:53:00,47.0,35.0,-100.00,WNW,285,3.0,7.0,63,0.00,,,0.02,0.000000,,2013-06-03 04:53:00,
2013-06-02 23:02:00,47.0,35.0,-100.00,WNW,285,3.0,7.0,63,0.00,,,0.02,0.000000,,2013-06-03 05:02:00,
2013-06-02 23:12:00,47.0,35.0,-100.00,WNW,285,3.0,7.0,63,0.00,,,0.02,0.000000,,2013-06-03 05:12:00,
2013-06-02 23:22:00,47.0,35.0,-100.00,WNW,285,3.0,7.0,63,0.00,,,0.02,0.000000,,2013-06-03 05:22:00,
2013-06-02 23:32:00,47.0,35.0,-100.00,WNW,285,3.0,7.0,63,0.00,,,0.02,0.000000,,2013-06-03 05:32:00,
2013-06-02 23:52:00,46.0,35.0,-100.00,NW,308,3.0,5.0,64,0.00,,,0.02,0.000000,,2013-06-03 05:52:00,